Creedmoor, North Carolina
Current Conditions -  °F | °C
As of 4:51 PM on Wednesday 22 Oct 2014 (Local Time) from KRDU Reporting Station
Broken Clouds Broken Clouds  
Wind Chill: 18°   Ceiling: 6500
Heat Index: 18°   Visibility: 10mi
Dew Point:   Wind: 7mph
Humidity: 43%   Direction: 310°NW
Pressure: 29.97"   Gusts: NA
Location:  36.12°N, 78.69°W
Report Text: KRDU 222051Z 31006KT 10SM BKN065 BKN250 18/05 A2997 RMK AO2 SLP148 T01780050 56002
Loading
Personal Weather Stations






























Interactive Weather Map
Tropical Storm Tracking
New forecast layout! Learn more

10-Day Weather Forecast

Advertisements
Track Severe Weather on mobile